createdAt,value
2023-01-08T00:00:56.810Z,100506.88
2023-01-08T00:03:23.651Z,100507.41
2023-01-08T00:05:50.369Z,100496.69
2023-01-08T00:08:16.781Z,100494.56
2023-01-08T00:10:43.203Z,100490.25
2023-01-08T00:13:09.614Z,100490.75
2023-01-08T00:15:36.442Z,100482.22
2023-01-08T00:18:05.405Z,100488.34
2023-01-08T00:20:32.937Z,100472.59
2023-01-08T00:22:59.297Z,100476.56
2023-01-08T00:25:25.780Z,100476.28
2023-01-08T00:27:52.191Z,100469.63
2023-01-08T00:30:18.592Z,100462.91
2023-01-08T00:32:45.024Z,100455.47
2023-01-08T00:35:11.412Z,100457.56
2023-01-08T00:37:37.834Z,100454.34
2023-01-08T00:40:04.841Z,100458.34
2023-01-08T00:42:31.304Z,100453.53
2023-01-08T00:44:57.706Z,100438.03
2023-01-08T00:47:24.114Z,100429.25
2023-01-08T00:49:50.587Z,100429.25
2023-01-08T00:52:17.119Z,100436.97
2023-01-08T00:54:43.560Z,100426.56
2023-01-08T00:57:10.012Z,100432.69
2023-01-08T00:59:36.401Z,100420.19
2023-01-08T01:02:02.928Z,100426.03
2023-01-08T01:04:29.509Z,100432.97
2023-01-08T01:06:55.925Z,100421.25
2023-01-08T01:09:22.410Z,100421.78
2023-01-08T01:11:48.806Z,100417.56
2023-01-08T01:14:15.725Z,100419.16
2023-01-08T01:16:42.777Z,100418.09
2023-01-08T01:19:09.668Z,100419.16
2023-01-08T01:21:36.212Z,100412.81
2023-01-08T01:24:04.551Z,100402.97
2023-01-08T01:26:32.082Z,100415.03
2023-01-08T01:28:59.625Z,100404.63
2023-01-08T01:31:28.927Z,100404.38
2023-01-08T01:33:55.552Z,100405.72
2023-01-08T01:36:23.800Z,100400.13
2023-01-08T01:38:52.104Z,100399.84
2023-01-08T01:41:24.623Z,100401.47
2023-01-08T01:43:51.341Z,100413.75
2023-01-08T01:46:35.381Z,100408.16
2023-01-08T01:49:17.598Z,100425.78
2023-01-08T01:51:48.821Z,100416.16
2023-01-08T01:54:17.561Z,100415.59
2023-01-08T01:56:45.299Z,100415.59
2023-01-08T01:59:12.813Z,100425.78
2023-01-08T02:01:41.474Z,100422.84
2023-01-08T02:04:17.738Z,100418.81
2023-01-08T02:06:56.142Z,100420.44
2023-01-08T02:09:37.071Z,100422.56
2023-01-08T02:12:16.695Z,100422.00
2023-01-08T02:15:11.564Z,100420.69
2023-01-08T02:17:56.183Z,100418.81
2023-01-08T02:20:22.624Z,100417.47
2023-01-08T02:23:08.800Z,100410.78
2023-01-08T02:26:06.767Z,100404.91
2023-01-08T02:28:40.038Z,100396.88
2023-01-08T02:31:07.404Z,100385.13
2023-01-08T02:33:34.036Z,100389.91
2023-01-08T02:36:20.576Z,100380.56
2023-01-08T02:38:58.875Z,100385.66
2023-01-08T02:41:35.610Z,100378.44
2023-01-08T02:44:05.169Z,100387.50
2023-01-08T02:46:34.316Z,100381.91
2023-01-08T02:49:10.219Z,100372.31
2023-01-08T02:51:54.535Z,100377.66
2023-01-08T02:54:25.144Z,100383.78
2023-01-08T02:57:01.340Z,100372.03
2023-01-08T02:59:31.335Z,100380.06
2023-01-08T03:01:58.323Z,100384.56
2023-01-08T03:04:26.695Z,100374.72
2023-01-08T03:06:53.368Z,100375.50
2023-01-08T03:09:20.648Z,100373.91
2023-01-08T03:12:02.311Z,100378.44
2023-01-08T03:14:36.176Z,100380.31
2023-01-08T03:17:14.489Z,100371.22
2023-01-08T03:19:45.007Z,100361.88
2023-01-08T03:22:14.598Z,100361.88
2023-01-08T03:24:43.966Z,100375.22
2023-01-08T03:27:16.715Z,100374.69
2023-01-08T03:29:45.762Z,100376.03
2023-01-08T03:32:16.307Z,100368.28
2023-01-08T03:34:45.619Z,100366.94
2023-01-08T03:37:13.981Z,100370.13
2023-01-08T03:39:46.146Z,100378.94
2023-01-08T03:42:15.242Z,100374.66
2023-01-08T03:44:41.889Z,100358.09
2023-01-08T03:47:10.898Z,100358.38
2023-01-08T03:49:40.298Z,100357.84
2023-01-08T03:52:06.680Z,100354.63
2023-01-08T03:54:36.545Z,100353.56
2023-01-08T03:57:03.185Z,100355.44
2023-01-08T03:59:29.619Z,100370.38
2023-01-08T04:01:56.090Z,100366.09
2023-01-08T04:04:22.703Z,100369.84
2023-01-08T04:06:49.109Z,100367.97
2023-01-08T04:09:15.487Z,100360.50
2023-01-08T04:11:42.184Z,100366.63
2023-01-08T04:14:08.739Z,100356.50
2023-01-08T04:16:35.232Z,100363.44
2023-01-08T04:19:01.646Z,100374.13
2023-01-08T04:21:28.187Z,100370.13
2023-01-08T04:23:55.301Z,100354.09
2023-01-08T04:26:21.649Z,100333.81
2023-01-08T04:28:48.023Z,100341.03
2023-01-08T04:31:14.488Z,100335.16
2023-01-08T04:33:40.912Z,100344.47
2023-01-08T04:36:07.485Z,100343.13
2023-01-08T04:38:33.850Z,100329.25
2023-01-08T04:41:01.700Z,100343.91
2023-01-08T04:43:28.919Z,100343.91
2023-01-08T04:46:03.226Z,100341.75
2023-01-08T04:48:30.729Z,100333.75
2023-01-08T04:51:01.141Z,100319.09
2023-01-08T04:53:28.040Z,100314.00
2023-01-08T04:55:54.599Z,100322.53
2023-01-08T04:58:21.472Z,100326.78
2023-01-08T05:00:47.950Z,100332.41
2023-01-08T05:03:14.816Z,100338.47
2023-01-08T05:05:41.214Z,100332.63
2023-01-08T05:08:07.647Z,100328.09
2023-01-08T05:10:34.105Z,100331.28
2023-01-08T05:13:01.156Z,100332.31
2023-01-08T05:15:28.076Z,100342.75
2023-01-08T05:18:02.113Z,100332.31
2023-01-08T05:20:28.962Z,100328.88
2023-01-08T05:22:55.442Z,100315.00
2023-01-08T05:25:21.988Z,100320.06
2023-01-08T05:27:48.432Z,100315.00
2023-01-08T05:30:15.021Z,100318.16
2023-01-08T05:32:41.396Z,100322.41
2023-01-08T05:35:08.140Z,100332.78
2023-01-08T05:37:35.670Z,100335.69
2023-01-08T05:40:02.216Z,100332.50
2023-01-08T05:42:28.808Z,100333.03
2023-01-08T05:44:55.237Z,100331.69
2023-01-08T05:47:21.617Z,100331.69
2023-01-08T05:49:47.969Z,100329.25
2023-01-08T05:52:14.300Z,100330.31
2023-01-08T05:54:40.673Z,100330.81
2023-01-08T05:57:07.011Z,100335.31
2023-01-08T05:59:33.539Z,100331.06
2023-01-08T06:01:59.890Z,100332.38
2023-01-08T06:04:26.467Z,100325.72
2023-01-08T06:06:52.923Z,100330.75
2023-01-08T06:09:19.885Z,100321.66
2023-01-08T06:11:46.392Z,100319.50
2023-01-08T06:14:14.480Z,100325.06
2023-01-08T06:16:40.849Z,100335.16
2023-01-08T06:19:07.260Z,100329.53
2023-01-08T06:21:33.697Z,100329.00
2023-01-08T06:24:00.107Z,100322.31
2023-01-08T06:26:26.459Z,100322.03
2023-01-08T06:28:52.836Z,100320.66
2023-01-08T06:31:19.318Z,100320.38
2023-01-08T06:33:45.812Z,100332.09
2023-01-08T06:36:12.226Z,100328.88
2023-01-08T06:38:38.576Z,100336.56
2023-01-08T06:41:06.981Z,100334.66
2023-01-08T06:43:36.277Z,100334.94
2023-01-08T06:46:06.434Z,100342.38
2023-01-08T06:48:32.924Z,100335.44
2023-01-08T06:51:00.827Z,100339.41
2023-01-08T06:53:27.235Z,100344.41
2023-01-08T06:55:56.927Z,100342.28
2023-01-08T06:58:24.949Z,100340.91
2023-01-08T07:00:51.460Z,100338.22
2023-01-08T07:03:17.943Z,100344.59
2023-01-08T07:05:44.408Z,100344.03
2023-01-08T07:08:13.682Z,100347.19
2023-01-08T07:10:40.266Z,100350.63
2023-01-08T07:13:08.894Z,100352.97
2023-01-08T07:15:42.033Z,100353.22
2023-01-08T07:18:10.926Z,100354.53
2023-01-08T07:20:37.670Z,100341.22
2023-01-08T07:23:06.496Z,100338.56
2023-01-08T07:25:33.387Z,100337.41
2023-01-08T07:28:00.412Z,100336.34
2023-01-08T07:30:30.209Z,100340.84
2023-01-08T07:33:01.490Z,100337.94
2023-01-08T07:35:28.770Z,100336.06
2023-01-08T07:37:55.191Z,100328.66
2023-01-08T07:40:21.854Z,100328.66
2023-01-08T07:42:48.291Z,100321.41
2023-01-08T07:45:14.802Z,100315.28
2023-01-08T07:47:41.138Z,100315.28
2023-01-08T07:50:07.966Z,100316.88
2023-01-08T07:52:34.297Z,100315.84
2023-01-08T07:55:00.710Z,100321.41
2023-01-08T07:57:29.600Z,100321.41
2023-01-08T07:59:55.987Z,100317.94
2023-01-08T08:02:22.442Z,100324.31
2023-01-08T08:04:48.873Z,100321.34
2023-01-08T08:07:15.238Z,100310.47
2023-01-08T08:09:41.624Z,100318.47
2023-01-08T08:12:08.774Z,100316.84
2023-01-08T08:14:35.133Z,100316.53
2023-01-08T08:17:01.455Z,100317.34
2023-01-08T08:19:27.817Z,100317.34
2023-01-08T08:21:54.795Z,100314.94
2023-01-08T08:24:21.134Z,100323.16
2023-01-08T08:26:47.504Z,100323.47
2023-01-08T08:29:13.852Z,100319.75
2023-01-08T08:31:40.422Z,100316.03
2023-01-08T08:34:07.987Z,100308.34
2023-01-08T08:36:34.522Z,100310.78
2023-01-08T08:39:02.167Z,100301.47
2023-01-08T08:41:28.825Z,100294.31
2023-01-08T08:43:55.448Z,100295.66
2023-01-08T08:46:24.134Z,100285.28
2023-01-08T08:48:54.670Z,100283.69
2023-01-08T08:51:21.388Z,100271.91
2023-01-08T08:53:48.088Z,100278.28
2023-01-08T08:56:17.289Z,100270.03
2023-01-08T08:58:45.266Z,100273.19
2023-01-08T09:01:15.130Z,100275.03
2023-01-08T09:03:41.918Z,100279.28
2023-01-08T09:06:16.880Z,100278.22
2023-01-08T09:08:43.378Z,100271.88
2023-01-08T09:11:10.050Z,100272.91
2023-01-08T09:13:39.985Z,100273.47
2023-01-08T09:16:06.736Z,100273.25
2023-01-08T09:18:34.409Z,100279.69
2023-01-08T09:21:06.109Z,100279.53
2023-01-08T09:23:34.034Z,100278.75
2023-01-08T09:26:05.014Z,100275.09
2023-01-08T09:28:32.044Z,100275.69
2023-01-08T09:31:02.795Z,100275.75
2023-01-08T09:33:30.002Z,100272.03
2023-01-08T09:35:56.344Z,100284.09
2023-01-08T09:38:23.542Z,100282.03
2023-01-08T09:41:03.641Z,100279.66
2023-01-08T09:43:34.734Z,100272.81
2023-01-08T09:46:03.978Z,100277.66
2023-01-08T09:48:35.683Z,100269.97
2023-01-08T09:51:02.269Z,100277.47
2023-01-08T09:53:29.283Z,100279.91
2023-01-08T09:56:15.249Z,100270.09
2023-01-08T09:58:45.296Z,100271.22
2023-01-08T10:01:15.309Z,100268.56
2023-01-08T10:03:46.931Z,100271.28
2023-01-08T10:06:15.317Z,100270.22
2023-01-08T10:11:15.581Z,100271.31
2023-01-08T10:13:49.062Z,100264.94
2023-01-08T10:16:38.212Z,100265.50
2023-01-08T10:19:05.471Z,100265.50
2023-01-08T10:21:37.905Z,100248.97
2023-01-08T10:24:04.428Z,100254.84
2023-01-08T10:26:33.643Z,100258.31
2023-01-08T10:29:11.608Z,100244.72
2023-01-08T10:31:53.826Z,100244.19
2023-01-08T10:34:32.735Z,100234.59
2023-01-08T10:36:59.458Z,100239.38
2023-01-08T10:39:28.405Z,100231.91
2023-01-08T10:42:03.359Z,100228.41
2023-01-08T10:44:31.426Z,100225.22
2023-01-08T10:47:00.973Z,100221.72
2023-01-08T10:49:32.434Z,100217.41
2023-01-08T10:52:00.230Z,100213.16
2023-01-08T10:54:32.167Z,100208.00
2023-01-08T10:57:00.649Z,100224.59
2023-01-08T10:59:29.216Z,100204.28
2023-01-08T11:01:57.709Z,100209.13
2023-01-08T11:04:36.093Z,100210.44
2023-01-08T11:07:05.668Z,100189.00
2023-01-08T11:09:46.034Z,100199.63
2023-01-08T11:12:41.895Z,100190.06
2023-01-08T11:15:28.610Z,100195.91
2023-01-08T11:17:55.197Z,100174.81
2023-01-08T11:20:30.693Z,100187.03
2023-01-08T11:23:17.688Z,100180.38
2023-01-08T11:25:59.095Z,100178.19
2023-01-08T11:28:33.521Z,100178.72
2023-01-08T11:31:33.793Z,100177.06
2023-01-08T11:34:12.079Z,100166.63
2023-01-08T11:36:47.417Z,100154.06
2023-01-08T11:39:13.868Z,100148.44
2023-01-08T11:42:11.355Z,100155.09
2023-01-08T11:45:02.755Z,100145.78
2023-01-08T11:47:53.661Z,100139.59
2023-01-08T11:50:32.727Z,100142.59
2023-01-08T11:53:23.628Z,100136.56
2023-01-08T11:56:07.912Z,100131.59
2023-01-08T11:59:03.174Z,100131.28
2023-01-08T12:01:29.586Z,100129.13
2023-01-08T12:04:27.908Z,100114.53
2023-01-08T12:07:01.280Z,100105.00
2023-01-08T12:09:38.670Z,100100.00
2023-01-08T12:12:25.939Z,100103.00
2023-01-08T12:15:15.145Z,100085.56
2023-01-08T12:18:09.907Z,100089.50
2023-01-08T12:20:54.936Z,100093.88
2023-01-08T12:23:35.148Z,100095.25
2023-01-08T12:26:42.914Z,100081.81
2023-01-08T12:29:35.014Z,100089.25
2023-01-08T12:32:10.727Z,100092.41
2023-01-08T12:35:04.089Z,100092.47
2023-01-08T12:37:46.361Z,100098.22
2023-01-08T12:40:12.792Z,100103.09
2023-01-08T12:42:47.131Z,100088.34
2023-01-08T12:45:28.354Z,100096.63
2023-01-08T12:48:24.027Z,100082.78
2023-01-08T12:51:07.691Z,100075.59
2023-01-08T12:53:49.642Z,100077.22
2023-01-08T12:56:27.805Z,100066.81
2023-01-08T12:59:03.941Z,100051.84
2023-01-08T13:01:36.789Z,100053.31
2023-01-08T13:04:05.156Z,100051.38
2023-01-08T13:06:31.906Z,100048.03
2023-01-08T13:09:01.489Z,100050.69
2023-01-08T13:11:38.328Z,100050.97
2023-01-08T13:14:07.759Z,100047.44
2023-01-08T13:16:42.198Z,100045.69
2023-01-08T13:19:25.241Z,100038.66
2023-01-08T13:21:54.943Z,100035.34
2023-01-08T13:24:29.542Z,100034.38
2023-01-08T13:26:57.438Z,100038.75
2023-01-08T13:29:44.858Z,100027.38
2023-01-08T13:32:47.614Z,100020.16
2023-01-08T13:35:17.056Z,100025.69
2023-01-08T13:37:45.875Z,100024.63
2023-01-08T13:40:47.472Z,100008.31
2023-01-08T13:43:40.724Z,100017.41
2023-01-08T13:46:15.932Z,100006.56
2023-01-08T13:49:01.020Z,99996.94
2023-01-08T13:51:43.381Z,99992.38
2023-01-08T13:54:12.577Z,99997.19
2023-01-08T13:56:41.036Z,99983.81
2023-01-08T13:59:18.820Z,99987.09
2023-01-08T14:01:53.422Z,99988.41
2023-01-08T14:04:21.619Z,99987.63
2023-01-08T14:06:48.246Z,99990.34
2023-01-08T14:09:23.238Z,99972.19
2023-01-08T14:11:53.370Z,99979.19
2023-01-08T14:14:21.724Z,99979.75
2023-01-08T14:16:50.179Z,99984.63
2023-01-08T14:19:22.218Z,99990.31
2023-01-08T14:21:54.474Z,99973.78
2023-01-08T14:24:23.440Z,99984.75
2023-01-08T14:26:56.267Z,99975.13
2023-01-08T14:29:30.720Z,99974.31
2023-01-08T14:32:00.094Z,99966.59
2023-01-08T14:34:30.347Z,99960.19
2023-01-08T14:36:57.424Z,99964.75
2023-01-08T14:39:35.413Z,99957.06
2023-01-08T14:42:27.249Z,99960.00
2023-01-08T14:44:56.734Z,99950.38
2023-01-08T14:47:30.037Z,99949.88
2023-01-08T14:49:57.043Z,99950.97
2023-01-08T14:52:23.646Z,99952.28
2023-01-08T14:54:55.037Z,99945.63
2023-01-08T14:57:24.131Z,99938.47
2023-01-08T15:00:01.836Z,99950.00
2023-01-08T15:02:33.500Z,99938.25
2023-01-08T15:05:19.705Z,99932.66
2023-01-08T15:07:57.806Z,99918.28
2023-01-08T15:10:44.512Z,99919.34
2023-01-08T15:13:24.700Z,99920.41
2023-01-08T15:15:56.692Z,99906.53
2023-01-08T15:18:23.616Z,99902.28
2023-01-08T15:20:51.076Z,99917.00
2023-01-08T15:23:27.146Z,99922.88
2023-01-08T15:25:54.810Z,99915.44
2023-01-08T15:28:21.887Z,99905.56
2023-01-08T15:30:49.424Z,99918.41
2023-01-08T15:33:16.920Z,99913.91
2023-01-08T15:35:43.426Z,99916.56
2023-01-08T15:38:09.909Z,99908.31
2023-01-08T15:40:36.248Z,99905.97
2023-01-08T15:43:11.532Z,99904.91
2023-01-08T15:45:40.544Z,99904.41
2023-01-08T15:48:08.068Z,99904.72
2023-01-08T15:50:38.850Z,99903.66
2023-01-08T15:53:25.562Z,99901.81
2023-01-08T15:55:52.058Z,99899.97
2023-01-08T15:58:18.585Z,99905.31
2023-01-08T16:00:46.457Z,99903.19
2023-01-08T16:03:14.568Z,99892.81
2023-01-08T16:05:41.032Z,99891.78
2023-01-08T16:08:07.542Z,99890.44
2023-01-08T16:10:34.267Z,99883.00
2023-01-08T16:13:01.476Z,99881.41
2023-01-08T16:15:28.748Z,99877.41
2023-01-08T16:17:55.458Z,99875.81
2023-01-08T16:20:21.813Z,99879.81
2023-01-08T16:22:48.205Z,99876.63
2023-01-08T16:25:14.707Z,99875.81
2023-01-08T16:27:42.943Z,99876.63
2023-01-08T16:30:16.961Z,99871.84
2023-01-08T16:32:43.574Z,99870.53
2023-01-08T16:35:10.754Z,99876.91
2023-01-08T16:37:37.523Z,99866.78
2023-01-08T16:40:04.556Z,99871.09
2023-01-08T16:42:31.009Z,99860.41
2023-01-08T16:44:57.421Z,99867.63
2023-01-08T16:47:23.850Z,99867.09
2023-01-08T16:49:51.135Z,99876.44
2023-01-08T16:52:18.234Z,99879.91
2023-01-08T16:54:46.012Z,99882.56
2023-01-08T16:57:12.641Z,99883.63
2023-01-08T16:59:39.069Z,99881.78
2023-01-08T17:02:06.103Z,99871.66
2023-01-08T17:04:32.824Z,99876.69
2023-01-08T17:06:59.164Z,99866.28
2023-01-08T17:09:26.035Z,99862.31
2023-01-08T17:11:52.440Z,99862.03
2023-01-08T17:14:18.978Z,99853.50
2023-01-08T17:16:45.561Z,99850.00
2023-01-08T17:19:13.371Z,99846.81
2023-01-08T17:21:40.125Z,99837.47
2023-01-08T17:24:07.262Z,99836.41
2023-01-08T17:26:33.741Z,99836.13
2023-01-08T17:29:00.122Z,99829.19
2023-01-08T17:31:26.508Z,99835.03
2023-01-08T17:33:54.449Z,99828.63
2023-01-08T17:36:22.114Z,99835.28
2023-01-08T17:38:50.543Z,99825.91
2023-01-08T17:41:36.465Z,99820.59
2023-01-08T17:44:08.017Z,99825.63
2023-01-08T17:46:42.083Z,99806.97
2023-01-08T17:49:11.188Z,99808.31
2023-01-08T17:51:38.698Z,99807.00
2023-01-08T17:54:05.294Z,99790.19
2023-01-08T17:56:31.720Z,99795.81
2023-01-08T17:58:58.152Z,99792.91
2023-01-08T18:01:24.578Z,99790.78
2023-01-08T18:03:52.101Z,99785.97
2023-01-08T18:06:18.503Z,99780.41
2023-01-08T18:08:44.879Z,99781.75
2023-01-08T18:11:11.328Z,99773.25
2023-01-08T18:13:38.093Z,99775.63
2023-01-08T18:16:10.775Z,99762.03
2023-01-08T18:18:38.047Z,99752.72
2023-01-08T18:21:04.951Z,99756.19
2023-01-08T18:23:31.896Z,99761.50
2023-01-08T18:26:10.854Z,99750.31
2023-01-08T18:28:38.581Z,99749.25
2023-01-08T18:31:10.411Z,99742.63
2023-01-08T18:33:37.777Z,99747.69
2023-01-08T18:36:09.365Z,99746.06
2023-01-08T18:38:41.213Z,99742.06
2023-01-08T18:41:08.323Z,99732.47
2023-01-08T18:43:36.012Z,99734.84
2023-01-08T18:46:05.553Z,99723.66
2023-01-08T18:48:32.676Z,99712.75
2023-01-08T18:51:05.102Z,99715.97
2023-01-08T18:53:33.211Z,99717.31
2023-01-08T18:56:00.439Z,99710.91
2023-01-08T18:58:27.706Z,99711.69
2023-01-08T19:00:54.440Z,99698.63
2023-01-08T19:03:21.023Z,99697.06
2023-01-08T19:05:47.364Z,99705.59
2023-01-08T19:08:13.931Z,99690.41
2023-01-08T19:10:40.453Z,99683.75
2023-01-08T19:13:07.044Z,99685.88
2023-01-08T19:15:33.627Z,99694.72
2023-01-08T19:18:00.152Z,99697.94
2023-01-08T19:20:27.453Z,99687.00
2023-01-08T19:22:53.835Z,99689.13
2023-01-08T19:25:20.505Z,99693.69
2023-01-08T19:27:47.102Z,99682.75
2023-01-08T19:30:13.740Z,99678.75
2023-01-08T19:32:40.171Z,99674.22
2023-01-08T19:35:06.734Z,99670.22
2023-01-08T19:37:33.138Z,99665.16
2023-01-08T19:40:01.950Z,99660.88
2023-01-08T19:42:46.905Z,99658.22
2023-01-08T19:45:13.690Z,99654.22
2023-01-08T19:47:40.254Z,99651.53
2023-01-08T19:50:07.474Z,99657.66
2023-01-08T19:52:33.867Z,99651.78
2023-01-08T19:55:01.518Z,99653.38
2023-01-08T19:57:28.309Z,99645.91
2023-01-08T19:59:54.830Z,99631.50
2023-01-08T20:02:21.393Z,99628.56
2023-01-08T20:04:47.856Z,99629.38
2023-01-08T20:07:14.672Z,99630.72
2023-01-08T20:09:42.168Z,99615.50
2023-01-08T20:12:09.207Z,99622.97
2023-01-08T20:14:35.718Z,99618.72
2023-01-08T20:17:02.473Z,99615.03
2023-01-08T20:19:28.947Z,99606.47
2023-01-08T20:21:55.613Z,99615.28
2023-01-08T20:24:22.148Z,99605.44
2023-01-08T20:26:48.536Z,99600.38
2023-01-08T20:29:16.673Z,99610.50
2023-01-08T20:31:44.165Z,99605.69
2023-01-08T20:34:15.354Z,99603.56
2023-01-08T20:36:43.696Z,99593.44
2023-01-08T20:39:13.799Z,99598.75
2023-01-08T20:41:43.564Z,99593.16
2023-01-08T20:44:16.713Z,99593.97
2023-01-08T20:46:43.445Z,99593.97
2023-01-08T20:49:13.099Z,99591.00
2023-01-08T20:51:46.327Z,99590.22
2023-01-08T20:54:17.986Z,99564.09
2023-01-08T20:56:44.706Z,99568.06
2023-01-08T20:59:11.459Z,99565.13
2023-01-08T21:01:37.886Z,99561.16
2023-01-08T21:04:06.226Z,99561.94
2023-01-08T21:06:33.772Z,99558.75
2023-01-08T21:09:06.249Z,99555.84
2023-01-08T21:11:34.193Z,99551.63
2023-01-08T21:14:01.832Z,99557.50
2023-01-08T21:16:30.252Z,99553.00
2023-01-08T21:18:58.099Z,99546.38
2023-01-08T21:21:29.595Z,99539.72
2023-01-08T21:23:57.288Z,99549.84
2023-01-08T21:26:24.061Z,99542.41
2023-01-08T21:28:50.808Z,99538.16
2023-01-08T21:31:20.221Z,99537.34
2023-01-08T21:33:48.736Z,99533.66
2023-01-08T21:36:21.031Z,99523.28
2023-01-08T21:38:48.180Z,99519.31
2023-01-08T21:41:37.765Z,99510.78
2023-01-08T21:44:24.891Z,99510.78
2023-01-08T21:46:51.349Z,99505.47
2023-01-08T21:49:17.863Z,99503.56
2023-01-08T21:52:02.898Z,99499.06
2023-01-08T21:54:29.338Z,99491.34
2023-01-08T21:56:55.747Z,99494.03
2023-01-08T21:59:22.220Z,99487.34
2023-01-08T22:01:48.640Z,99479.06
2023-01-08T22:04:15.037Z,99480.88
2023-01-08T22:06:42.791Z,99490.47
2023-01-08T22:09:09.637Z,99484.59
2023-01-08T22:11:36.025Z,99482.69
2023-01-08T22:14:02.489Z,99483.22
2023-01-08T22:16:28.907Z,99483.44
2023-01-08T22:18:55.301Z,99484.50
2023-01-08T22:21:21.710Z,99481.53
2023-01-08T22:23:48.295Z,99473.28
2023-01-08T22:26:14.760Z,99469.25
2023-01-08T22:28:41.153Z,99479.63
2023-01-08T22:31:09.997Z,99464.44
2023-01-08T22:33:37.143Z,99475.88
2023-01-08T22:36:05.729Z,99486.84
2023-01-08T22:38:32.257Z,99506.03
2023-01-08T22:40:59.216Z,99506.59
2023-01-08T22:43:26.078Z,99496.22
2023-01-08T22:45:59.813Z,99510.63
2023-01-08T22:48:27.610Z,99497.28
2023-01-08T22:50:54.459Z,99488.78
2023-01-08T22:53:20.905Z,99498.91
2023-01-08T22:55:48.228Z,99498.69
2023-01-08T22:58:16.129Z,99502.69
2023-01-08T23:00:43.105Z,99497.41
2023-01-08T23:03:09.665Z,99498.47
2023-01-08T23:05:36.166Z,99506.75
2023-01-08T23:08:02.873Z,99495.28
2023-01-08T23:10:29.579Z,99485.97
2023-01-08T23:12:56.075Z,99490.78
2023-01-08T23:15:23.029Z,99490.25
2023-01-08T23:17:52.431Z,99500.13
2023-01-08T23:20:20.749Z,99502.78
2023-01-08T23:22:48.821Z,99511.06
2023-01-08T23:25:15.684Z,99513.72
2023-01-08T23:27:42.243Z,99520.13
2023-01-08T23:30:09.244Z,99528.91
2023-01-08T23:32:35.626Z,99520.66
2023-01-08T23:35:02.119Z,99519.88
2023-01-08T23:37:28.446Z,99523.88
2023-01-08T23:39:54.804Z,99526.00
2023-01-08T23:42:21.331Z,99526.59
2023-01-08T23:44:49.574Z,99527.91
2023-01-08T23:47:16.060Z,99536.47
2023-01-08T23:49:42.485Z,99529.81
2023-01-08T23:52:08.889Z,99534.59
2023-01-08T23:54:35.868Z,99530.63
2023-01-08T23:57:02.470Z,99534.91
2023-01-08T23:59:28.945Z,99532.00
